Time;durP1;ratioP1;P1;durP2;ratioP2;P2;SDS_P1;SDS_P2;PMS_P1;PMS_P2;Temp;Humidity;BMP_temperature;BMP_pressure;BME280_temperature;BME280_humidity;BME280_pressure;Samples;Min_cycle;Max_cycle;Signal;HPM_P1;HPM_P2
2021/05/10 00:00:57;;;;;;;4.33;3.50;;;17.00;99.90;;;;;;5074998;28;20660;-65
2021/05/10 00:03:24;;;;;;;4.27;3.00;;;17.10;99.90;;;;;;5074699;28;20606;-65
2021/05/10 00:05:51;;;;;;;3.50;3.20;;;17.20;99.90;;;;;;5074834;28;21437;-65
2021/05/10 00:08:19;;;;;;;5.00;3.73;;;17.20;99.90;;;;;;5074845;28;20602;-65
2021/05/10 00:10:45;;;;;;;3.57;3.23;;;17.30;99.90;;;;;;5074953;28;20618;-65
2021/05/10 00:13:14;;;;;;;3.80;3.50;;;17.30;99.90;;;;;;5074791;28;20626;-65
2021/05/10 00:15:41;;;;;;;3.70;3.27;;;17.40;99.90;;;;;;5073714;28;20725;-65
2021/05/10 00:18:07;;;;;;;5.07;3.33;;;17.50;99.90;;;;;;5074582;28;20614;-65
2021/05/10 00:20:36;;;;;;;3.80;3.37;;;17.50;99.90;;;;;;5074557;28;20654;-65
2021/05/10 00:23:04;;;;;;;3.77;3.47;;;17.50;99.90;;;;;;5074379;28;20609;-65
2021/05/10 00:25:31;;;;;;;3.40;3.20;;;17.50;99.90;;;;;;5074321;28;20588;-65
2021/05/10 00:27:57;;;;;;;8.77;4.00;;;17.60;99.90;;;;;;5074427;28;20644;-65
2021/05/10 00:30:25;;;;;;;3.80;3.50;;;17.60;99.90;;;;;;5074140;28;21141;-65
2021/05/10 00:32:52;;;;;;;8.27;3.70;;;17.60;99.90;;;;;;5074263;28;20626;-65
2021/05/10 00:35:19;;;;;;;11.00;3.80;;;17.70;99.90;;;;;;5074435;28;20626;-65
2021/05/10 00:37:46;;;;;;;3.80;3.40;;;17.70;99.90;;;;;;5074311;28;20639;-65
2021/05/10 00:40:15;;;;;;;4.23;3.93;;;17.70;99.90;;;;;;5074087;28;21020;-65
2021/05/10 00:42:41;;;;;;;4.33;3.10;;;17.70;99.90;;;;;;5073892;28;20594;-65
2021/05/10 00:45:09;;;;;;;3.37;3.17;;;17.60;99.90;;;;;;5073970;28;20645;-65
2021/05/10 00:47:36;;;;;;;5.40;3.60;;;17.50;99.90;;;;;;5073915;28;20697;-65
2021/05/10 00:50:07;;;;;;;4.10;3.70;;;17.50;99.90;;;;;;5073795;28;20600;-65
2021/05/10 00:52:34;;;;;;;3.40;3.20;;;17.50;99.90;;;;;;5073584;28;20648;-65
2021/05/10 00:55:01;;;;;;;3.90;3.13;;;17.50;99.90;;;;;;5074076;28;20547;-65
2021/05/10 00:57:36;;;;;;;4.70;3.97;;;17.40;99.90;;;;;;5072414;28;21153;-65
2021/05/10 01:00:07;;;;;;;4.13;3.83;;;17.50;99.90;;;;;;5073693;28;20594;-65
2021/05/10 01:02:35;;;;;;;4.23;3.47;;;17.50;99.90;;;;;;5073776;28;21018;-65
2021/05/10 01:05:03;;;;;;;7.60;3.87;;;17.50;99.90;;;;;;5073337;28;20719;-65
2021/05/10 01:07:29;;;;;;;4.07;3.10;;;17.50;99.90;;;;;;5073808;28;20969;-65
2021/05/10 01:09:55;;;;;;;4.50;3.77;;;17.50;99.90;;;;;;5073972;28;21184;-65
2021/05/10 01:12:22;;;;;;;5.90;3.30;;;17.50;99.90;;;;;;5073836;28;20664;-65
2021/05/10 01:14:48;;;;;;;6.53;3.77;;;17.40;99.90;;;;;;5073802;28;20618;-66
2021/05/10 01:17:15;;;;;;;4.57;4.13;;;17.30;99.90;;;;;;5073732;28;20589;-66
2021/05/10 01:19:41;;;;;;;5.57;4.10;;;17.00;99.90;;;;;;5073921;28;21156;-65
2021/05/10 01:22:10;;;;;;;4.60;4.20;;;16.80;99.90;;;;;;5073579;28;20569;-65
2021/05/10 01:24:37;;;;;;;5.00;4.60;;;16.80;99.90;;;;;;5073732;28;20637;-66
2021/05/10 01:27:03;;;;;;;8.37;4.57;;;16.70;99.90;;;;;;5073405;28;20605;-66
2021/05/10 01:29:30;;;;;;;4.30;3.90;;;16.80;99.90;;;;;;5073681;28;21009;-66
2021/05/10 01:31:56;;;;;;;4.57;4.10;;;16.80;99.90;;;;;;5073481;28;20606;-66
2021/05/10 01:34:23;;;;;;;4.50;3.63;;;16.80;99.90;;;;;;5072358;28;20932;-66
2021/05/10 01:36:49;;;;;;;4.30;3.90;;;16.80;99.90;;;;;;5073347;28;20618;-66
2021/05/10 01:39:15;;;;;;;4.57;4.27;;;16.80;99.90;;;;;;5073410;28;20702;-66
2021/05/10 01:41:41;;;;;;;4.80;4.50;;;16.80;99.90;;;;;;5073254;28;21001;-66
2021/05/10 01:44:08;;;;;;;12.27;4.07;;;16.80;99.90;;;;;;5073427;28;20623;-65
2021/05/10 01:46:34;;;;;;;4.03;3.73;;;16.80;99.90;;;;;;5073195;28;20598;-65
2021/05/10 01:49:02;;;;;;;4.03;3.73;;;16.80;99.90;;;;;;5073254;28;20590;-66
2021/05/10 01:51:28;;;;;;;5.13;4.17;;;16.90;99.90;;;;;;5073476;28;20620;-66
2021/05/10 01:53:54;;;;;;;4.10;3.80;;;16.90;99.90;;;;;;5072862;28;21008;-66
2021/05/10 01:56:21;;;;;;;3.97;3.67;;;16.80;99.90;;;;;;5073236;28;21052;-66
2021/05/10 01:58:54;;;;;;;6.03;3.80;;;16.70;99.90;;;;;;5073398;28;20616;-66
2021/05/10 02:01:21;;;;;;;4.70;4.37;;;16.50;99.90;;;;;;5073125;28;20952;-66
2021/05/10 02:03:48;;;;;;;5.00;4.60;;;16.40;99.90;;;;;;5073200;28;20625;-66
2021/05/10 02:06:14;;;;;;;4.47;4.07;;;16.30;99.90;;;;;;5073135;28;21168;-65
2021/05/10 02:08:41;;;;;;;5.40;4.70;;;16.40;99.90;;;;;;5073466;28;20623;-65
2021/05/10 02:11:07;;;;;;;4.03;3.83;;;16.40;99.90;;;;;;5073211;28;21134;-66
2021/05/10 02:13:34;;;;;;;4.33;3.90;;;16.40;99.90;;;;;;5072815;28;20605;-66
2021/05/10 02:16:02;;;;;;;4.80;3.73;;;16.40;99.90;;;;;;5073023;28;20618;-66
2021/05/10 02:18:34;;;;;;;6.10;4.40;;;16.40;99.90;;;;;;5072958;28;20705;-65
2021/05/10 02:21:01;;;;;;;4.20;3.90;;;16.50;99.90;;;;;;5072706;28;21191;-65
2021/05/10 02:23:30;;;;;;;4.90;4.40;;;16.50;99.90;;;;;;5072801;28;20614;-65
2021/05/10 02:26:01;;;;;;;3.93;3.67;;;16.30;99.90;;;;;;5073079;28;21155;-65
2021/05/10 02:28:30;;;;;;;8.00;4.07;;;16.00;99.90;;;;;;5072776;28;20585;-65
2021/05/10 02:30:58;;;;;;;4.70;4.30;;;16.00;99.90;;;;;;5073069;28;20980;-66
2021/05/10 02:33:27;;;;;;;11.30;4.87;;;15.90;99.90;;;;;;5073024;28;20593;-65
2021/05/10 02:35:55;;;;;;;4.47;4.17;;;15.90;99.90;;;;;;5072819;28;21160;-66
2021/05/10 02:38:22;;;;;;;5.87;3.87;;;16.00;99.90;;;;;;5072967;28;20625;-66
2021/05/10 02:40:49;;;;;;;6.10;4.60;;;16.00;99.90;;;;;;5075961;28;20993;-66
2021/05/10 02:43:16;;;;;;;5.10;4.33;;;16.10;99.90;;;;;;5074960;28;20610;-66
2021/05/10 02:45:44;;;;;;;4.17;3.70;;;16.10;99.90;;;;;;5076383;28;20600;-66
2021/05/10 02:48:11;;;;;;;6.50;4.93;;;16.00;99.90;;;;;;5075060;28;20949;-66
2021/05/10 02:50:37;;;;;;;3.97;3.73;;;16.00;99.90;;;;;;5076077;28;20613;-66
2021/05/10 02:53:04;;;;;;;8.20;5.60;;;15.80;99.90;;;;;;5076082;28;20650;-66
2021/05/10 02:55:30;;;;;;;6.90;5.73;;;15.50;99.90;;;;;;5076569;28;20993;-66
2021/05/10 02:57:57;;;;;;;5.40;5.00;;;15.40;99.90;;;;;;5076253;28;20618;-65
2021/05/10 03:00:26;;;;;;;8.23;4.50;;;15.50;99.90;;;;;;5076455;28;21247;-65
2021/05/10 03:02:55;;;;;;;6.27;4.80;;;15.60;99.90;;;;;;5075584;28;20618;-66
2021/05/10 03:05:22;;;;;;;4.87;4.47;;;15.60;99.90;;;;;;5076042;28;20993;-65
2021/05/10 03:07:48;;;;;;;5.50;5.07;;;15.60;99.90;;;;;;5074089;28;20626;-66
2021/05/10 03:10:16;;;;;;;5.50;5.00;;;15.50;99.90;;;;;;5075287;28;20716;-66
2021/05/10 03:12:43;;;;;;;5.20;4.70;;;15.30;99.90;;;;;;5063314;28;20618;-65
2021/05/10 03:15:12;;;;;;;5.07;4.53;;;15.40;99.90;;;;;;5071709;28;20593;-65
2021/05/10 03:17:39;;;;;;;5.63;4.90;;;15.60;99.90;;;;;;5075863;28;20580;-65
2021/05/10 03:20:08;;;;;;;5.60;4.50;;;15.50;99.90;;;;;;5074434;28;20970;-65
2021/05/10 03:22:35;;;;;;;5.43;5.03;;;15.30;99.90;;;;;;5075451;28;20614;-65
2021/05/10 03:25:02;;;;;;;6.30;5.00;;;15.20;99.90;;;;;;5074689;28;20624;-65
2021/05/10 03:27:30;;;;;;;6.37;4.93;;;15.30;99.90;;;;;;5075638;28;20644;-65
2021/05/10 03:29:56;;;;;;;5.93;5.30;;;15.50;99.90;;;;;;5075800;28;20709;-65
2021/05/10 03:32:22;;;;;;;11.33;5.97;;;15.40;99.90;;;;;;5075662;28;21175;-65
2021/05/10 03:34:49;;;;;;;4.20;3.80;;;15.30;99.90;;;;;;5075471;28;20569;-65
2021/05/10 03:37:15;;;;;;;4.13;3.70;;;15.30;99.90;;;;;;5075672;28;21170;-65
2021/05/10 03:39:41;;;;;;;4.27;3.97;;;15.30;99.90;;;;;;5075500;28;20572;-65
2021/05/10 03:42:08;;;;;;;7.33;4.40;;;15.50;99.90;;;;;;5075771;28;20632;-65
2021/05/10 03:44:34;;;;;;;4.13;3.83;;;15.50;99.90;;;;;;5075515;28;21041;-65
2021/05/10 03:47:00;;;;;;;3.70;3.50;;;15.60;99.90;;;;;;5075282;28;20564;-65
2021/05/10 03:49:27;;;;;;;5.07;4.57;;;15.60;99.90;;;;;;5075170;28;20640;-65
2021/05/10 03:51:53;;;;;;;4.60;4.20;;;15.50;99.90;;;;;;5074294;28;20614;-65
2021/05/10 03:54:19;;;;;;;9.33;4.00;;;15.50;99.90;;;;;;5074991;28;20642;-65
2021/05/10 03:56:46;;;;;;;7.60;4.50;;;15.50;99.90;;;;;;5074832;28;20954;-66
2021/05/10 03:59:12;;;;;;;4.33;4.03;;;15.60;99.90;;;;;;5075064;28;20950;-65
2021/05/10 04:01:38;;;;;;;8.47;4.70;;;15.60;99.90;;;;;;5075026;28;20658;-65
2021/05/10 04:04:28;;;;;;;6.80;4.07;;;15.60;99.90;;;;;;5073635;28;20614;-65
2021/05/10 04:14:37;;;;;;;5.30;3.83;;;15.80;99.90;;;;;;5075083;28;20594;-65
2021/05/10 04:17:03;;;;;;;4.83;4.43;;;15.80;99.90;;;;;;5074705;28;20815;-65
2021/05/10 04:19:30;;;;;;;4.37;4.07;;;15.50;99.90;;;;;;5074903;28;20610;-65
2021/05/10 04:21:56;;;;;;;4.90;4.43;;;15.80;99.90;;;;;;5075087;28;20657;-64
2021/05/10 04:24:22;;;;;;;8.50;4.07;;;15.80;99.90;;;;;;5075231;28;21117;-65
2021/05/10 04:26:49;;;;;;;4.87;4.37;;;15.80;99.90;;;;;;5074805;28;20594;-65
2021/05/10 04:29:15;;;;;;;4.47;4.07;;;15.80;99.90;;;;;;5074805;28;21029;-65
2021/05/10 04:31:41;;;;;;;4.60;4.20;;;15.80;99.90;;;;;;5074222;28;20659;-65
2021/05/10 04:34:08;;;;;;;5.47;4.10;;;15.90;99.90;;;;;;5074424;28;21204;-65
2021/05/10 04:36:34;;;;;;;5.17;4.20;;;16.00;99.90;;;;;;5074283;28;21236;-65
2021/05/10 04:39:00;;;;;;;6.77;4.20;;;16.10;99.90;;;;;;5074427;28;20641;-65
2021/05/10 04:41:27;;;;;;;6.10;4.33;;;16.10;99.90;;;;;;5072931;28;20670;-65
2021/05/10 04:43:53;;;;;;;4.27;3.97;;;16.10;99.90;;;;;;5073845;28;20633;-65
2021/05/10 04:46:19;;;;;;;6.70;4.33;;;16.00;99.90;;;;;;5074009;28;20957;-65
2021/05/10 04:48:46;;;;;;;5.10;4.60;;;16.00;99.90;;;;;;5074137;28;20606;-65
2021/05/10 04:51:12;;;;;;;5.93;4.40;;;15.90;99.90;;;;;;5074021;28;20603;-65
2021/05/10 04:53:38;;;;;;;4.33;4.03;;;15.90;99.90;;;;;;5073841;28;20642;-65
2021/05/10 04:56:05;;;;;;;5.73;5.10;;;15.90;99.90;;;;;;5074156;28;20695;-65
2021/05/10 04:58:33;;;;;;;7.17;5.10;;;16.00;99.90;;;;;;5073719;28;20658;-65
2021/05/10 05:00:59;;;;;;;5.00;4.60;;;16.00;99.90;;;;;;5079309;28;20732;-65
2021/05/10 05:03:26;;;;;;;6.77;4.73;;;16.10;99.90;;;;;;5073576;28;20614;-65
2021/05/10 05:05:52;;;;;;;5.00;4.60;;;16.20;99.90;;;;;;5073526;28;20683;-65
2021/05/10 05:08:19;;;;;;;4.90;4.60;;;16.20;99.90;;;;;;5073626;28;21102;-65
2021/05/10 05:10:45;;;;;;;5.13;4.67;;;16.20;99.90;;;;;;5073784;28;20625;-64
2021/05/10 05:13:22;;;;;;;4.00;3.70;;;16.40;99.90;;;;;;5073822;28;20605;-64
2021/05/10 05:15:48;;;;;;;4.93;3.53;;;16.60;99.90;;;;;;5073733;28;20688;-65
2021/05/10 05:18:15;;;;;;;3.77;2.93;;;16.80;99.90;;;;;;5073380;28;20614;-65
2021/05/10 05:20:41;;;;;;;5.03;3.30;;;16.90;99.90;;;;;;5073202;28;20634;-65
2021/05/10 05:23:21;;;;;;;2.53;2.33;;;17.10;99.90;;;;;;5073203;28;20620;-66
2021/05/10 05:25:53;;;;;;;3.03;2.40;;;17.50;99.90;;;;;;5073283;28;20614;-66
2021/05/10 05:28:19;;;;;;;3.43;2.13;;;17.70;99.90;;;;;;5073893;28;20654;-65
2021/05/10 05:30:46;;;;;;;1.80;1.70;;;18.00;99.90;;;;;;5073550;28;21097;-65
2021/05/10 05:33:13;;;;;;;4.10;2.67;;;18.20;99.90;;;;;;5072477;28;20709;-65
2021/05/10 05:35:39;;;;;;;2.33;2.07;;;18.40;99.90;;;;;;5073201;28;20614;-65
2021/05/10 05:38:09;;;;;;;2.77;2.10;;;18.50;99.90;;;;;;5073979;28;20611;-65
2021/05/10 05:40:36;;;;;;;4.10;1.87;;;18.60;99.90;;;;;;5073319;28;20623;-65
2021/05/10 05:43:02;;;;;;;4.87;1.80;;;18.60;99.90;;;;;;5073609;28;20618;-65
2021/05/10 05:45:29;;;;;;;4.43;1.70;;;18.60;99.90;;;;;;5073352;28;20602;-65
2021/05/10 05:47:55;;;;;;;2.80;2.17;;;18.70;99.90;;;;;;5072976;28;20628;-65
2021/05/10 05:50:25;;;;;;;5.43;2.10;;;18.70;99.90;;;;;;5073355;28;20706;-65
2021/05/10 05:52:56;;;;;;;1.93;1.83;;;18.70;99.90;;;;;;5071890;28;20689;-66
2021/05/10 05:55:23;;;;;;;3.40;2.30;;;18.70;99.90;;;;;;5073553;28;20609;-66
2021/05/10 05:57:49;;;;;;;1.87;1.73;;;18.80;99.90;;;;;;5073314;28;20714;-66
2021/05/10 06:00:16;;;;;;;3.73;2.20;;;18.80;99.90;;;;;;5071577;28;20695;-66
2021/05/10 06:02:43;;;;;;;2.27;2.07;;;18.80;99.90;;;;;;5073209;28;20653;-66
2021/05/10 06:05:11;;;;;;;12.23;1.93;;;18.80;99.90;;;;;;5073691;28;20604;-66
2021/05/10 06:07:42;;;;;;;2.70;1.90;;;18.80;99.90;;;;;;5073430;28;21128;-64
2021/05/10 06:10:10;;;;;;;2.63;1.87;;;18.90;99.90;;;;;;5072900;28;20597;-65
2021/05/10 06:12:38;;;;;;;3.20;1.73;;;18.90;99.90;;;;;;5073556;28;20621;-64
2021/05/10 06:15:06;;;;;;;2.80;2.00;;;19.00;99.90;;;;;;5075508;28;20622;-64
2021/05/10 06:17:36;;;;;;;5.13;2.00;;;19.00;99.90;;;;;;5076782;28;20621;-64
2021/05/10 06:20:08;;;;;;;4.47;2.40;;;19.00;99.90;;;;;;5076611;28;20600;-65
2021/05/10 06:22:40;;;;;;;5.60;2.07;;;19.00;99.90;;;;;;5077139;28;20638;-65
2021/05/10 06:25:12;;;;;;;3.10;2.37;;;18.90;99.90;;;;;;5077526;28;20606;-66
2021/05/10 06:27:38;;;;;;;3.53;3.10;;;18.70;99.90;;;;;;5077193;28;20600;-65
2021/05/10 06:30:07;;;;;;;6.17;2.90;;;18.70;99.90;;;;;;5077496;28;20675;-65
2021/05/10 06:32:34;;;;;;;10.40;4.10;;;18.60;99.90;;;;;;5077091;28;20612;-65
2021/05/10 06:35:00;;;;;;;8.20;4.70;;;18.60;99.90;;;;;;5077441;28;20652;-65
2021/05/10 06:37:30;;;;;;;4.67;3.80;;;18.50;99.90;;;;;;5077223;28;20669;-64
2021/05/10 06:39:57;;;;;;;4.20;3.87;;;18.20;99.90;;;;;;5077008;28;20608;-64
2021/05/10 06:42:24;;;;;;;4.77;4.33;;;18.00;99.90;;;;;;5076808;28;20719;-65
2021/05/10 06:44:51;;;;;;;10.10;4.30;;;18.00;99.90;;;;;;5076845;28;20594;-65
2021/05/10 06:47:18;;;;;;;9.27;4.47;;;18.00;99.90;;;;;;5076746;28;20626;-65
2021/05/10 06:49:44;;;;;;;3.10;2.90;;;18.20;99.90;;;;;;5069063;28;21234;-65
2021/05/10 06:52:10;;;;;;;5.43;3.40;;;18.10;99.90;;;;;;5069550;28;20637;-65
2021/05/10 06:54:37;;;;;;;4.83;3.53;;;18.30;99.90;;;;;;5076529;28;20585;-65
2021/05/10 06:57:03;;;;;;;4.13;3.43;;;18.40;99.90;;;;;;5076662;28;20646;-65
2021/05/10 06:59:30;;;;;;;6.90;2.90;;;18.40;99.90;;;;;;5076432;28;20641;-65
2021/05/10 07:01:56;;;;;;;3.83;3.50;;;18.60;99.90;;;;;;5076400;28;20715;-65
2021/05/10 07:04:22;;;;;;;3.80;3.40;;;18.70;99.90;;;;;;5076499;28;20618;-65
2021/05/10 07:06:49;;;;;;;3.27;2.97;;;18.80;99.90;;;;;;5076306;28;20712;-65
2021/05/10 07:09:15;;;;;;;3.50;3.13;;;18.80;99.90;;;;;;5075853;28;20614;-65
2021/05/10 07:11:42;;;;;;;4.23;3.10;;;18.90;99.90;;;;;;5075759;28;21049;-65
2021/05/10 07:14:08;;;;;;;3.60;2.77;;;19.00;99.90;;;;;;5075571;28;20626;-65
2021/05/10 07:16:34;;;;;;;3.03;2.70;;;19.10;99.90;;;;;;5075635;28;20626;-65
2021/05/10 07:19:01;;;;;;;3.63;2.33;;;19.30;99.90;;;;;;5075435;28;20616;-65
2021/05/10 07:21:27;;;;;;;2.87;2.17;;;19.60;99.90;;;;;;5069018;28;20659;-65
2021/05/10 07:23:54;;;;;;;5.20;1.90;;;19.70;99.90;;;;;;5076012;28;20594;-65
2021/05/10 07:26:20;;;;;;;2.93;1.50;;;19.70;99.90;;;;;;5076556;28;20670;-65
2021/05/10 07:28:47;;;;;;;1.83;1.50;;;19.90;99.90;;;;;;5076101;28;20610;-65
2021/05/10 07:31:13;;;;;;;2.13;1.63;;;19.80;99.90;;;;;;5076819;28;20775;-65
2021/05/10 07:33:40;;;;;;;2.73;1.90;;;19.90;99.90;;;;;;5076299;28;20614;-65
2021/05/10 07:36:06;;;;;;;1.47;1.37;;;19.90;99.90;;;;;;5075903;28;20694;-65
2021/05/10 07:38:32;;;;;;;1.33;1.23;;;20.00;99.90;;;;;;5075812;28;20603;-65
2021/05/10 07:40:59;;;;;;;3.00;1.40;;;19.70;99.90;;;;;;5075596;28;20622;-64
2021/05/10 07:43:25;;;;;;;2.30;1.10;;;19.80;99.90;;;;;;5075937;28;20598;-65
2021/05/10 07:45:52;;;;;;;1.57;1.20;;;19.60;99.90;;;;;;5075351;28;20632;-65
2021/05/10 07:48:18;;;;;;;1.40;1.30;;;19.70;99.90;;;;;;5075741;28;20599;-65
2021/05/10 07:50:44;;;;;;;1.33;1.23;;;19.60;99.90;;;;;;5075753;28;20626;-65
2021/05/10 07:53:13;;;;;;;3.03;1.27;;;19.60;99.90;;;;;;5075640;28;20673;-65
2021/05/10 07:55:40;;;;;;;3.77;1.20;;;19.50;99.90;;;;;;5075293;28;20960;-65
2021/05/10 07:58:06;;;;;;;3.77;1.00;;;19.40;99.90;;;;;;5075739;28;20603;-65
2021/05/10 08:00:36;;;;;;;2.40;1.60;;;19.50;99.90;;;;;;5075332;28;20717;-65
2021/05/10 08:03:07;;;;;;;1.47;1.37;;;19.60;99.90;;;;;;5075337;28;21226;-65
2021/05/10 08:05:38;;;;;;;4.50;1.50;;;19.50;99.90;;;;;;5075007;28;20632;-65
2021/05/10 08:08:05;;;;;;;1.97;1.10;;;19.60;99.90;;;;;;5075188;28;20594;-65
2021/05/10 08:10:37;;;;;;;1.77;1.40;;;19.60;99.90;;;;;;5075341;28;20983;-65
2021/05/10 08:13:03;;;;;;;1.80;1.20;;;19.60;99.90;;;;;;5074791;28;20594;-65
2021/05/10 08:15:29;;;;;;;2.10;1.50;;;19.50;99.90;;;;;;5074732;28;20931;-65
2021/05/10 08:17:56;;;;;;;1.40;1.30;;;19.50;99.90;;;;;;5074900;28;20610;-65
2021/05/10 08:20:22;;;;;;;2.33;1.40;;;19.50;99.90;;;;;;5074526;28;20593;-65
2021/05/10 08:22:49;;;;;;;1.40;1.27;;;19.60;99.90;;;;;;5074637;28;20649;-65
2021/05/10 08:25:15;;;;;;;1.20;1.10;;;19.60;99.90;;;;;;5074771;28;20625;-65
2021/05/10 08:27:42;;;;;;;2.87;1.23;;;19.70;99.90;;;;;;5073097;28;20717;-65
2021/05/10 08:30:11;;;;;;;1.40;0.97;;;19.80;99.90;;;;;;5074224;28;20590;-65
2021/05/10 08:32:39;;;;;;;2.20;0.90;;;19.80;99.90;;;;;;5074519;28;20625;-65
2021/05/10 08:35:06;;;;;;;1.17;1.07;;;19.60;99.90;;;;;;5074557;28;20705;-64
2021/05/10 08:37:33;;;;;;;3.57;1.10;;;19.50;99.90;;;;;;5073738;28;20590;-65
2021/05/10 08:39:59;;;;;;;1.40;1.27;;;19.40;99.90;;;;;;5074329;28;21173;-65
2021/05/10 08:42:27;;;;;;;1.73;1.00;;;19.20;99.90;;;;;;5073876;28;20638;-65
2021/05/10 08:44:54;;;;;;;3.40;1.20;;;19.10;99.90;;;;;;5074600;28;20625;-65
2021/05/10 08:47:22;;;;;;;3.27;1.00;;;19.20;99.90;;;;;;5072595;28;20625;-65
2021/05/10 08:49:48;;;;;;;4.23;1.30;;;19.20;99.90;;;;;;5056319;28;20618;-65
2021/05/10 08:52:15;;;;;;;1.30;1.20;;;19.10;99.90;;;;;;5073598;28;20606;-65
2021/05/10 08:54:41;;;;;;;3.27;1.47;;;19.10;99.90;;;;;;5073892;28;20649;-65
2021/05/10 08:57:08;;;;;;;1.13;1.03;;;19.10;99.90;;;;;;5074208;28;20618;-65
2021/05/10 08:59:35;;;;;;;2.80;1.00;;;19.00;99.90;;;;;;5074354;28;20610;-65
2021/05/10 09:02:03;;;;;;;1.53;0.93;;;19.00;99.90;;;;;;5074136;28;21055;-65
2021/05/10 09:04:43;;;;;;;1.10;1.00;;;19.00;99.90;;;;;;5074147;28;20609;-65
2021/05/10 09:07:19;;;;;;;2.50;0.70;;;19.00;99.90;;;;;;5072503;28;20624;-65
2021/05/10 09:09:58;;;;;;;1.10;0.97;;;19.00;99.90;;;;;;5073912;28;20571;-66
2021/05/10 09:12:39;;;;;;;1.50;1.10;;;18.90;99.90;;;;;;5074101;28;20721;-65
2021/05/10 09:15:25;;;;;;;0.90;0.90;;;18.70;99.90;;;;;;5074076;28;20726;-65
2021/05/10 09:17:52;;;;;;;1.60;0.77;;;18.80;99.90;;;;;;5073569;28;20644;-66
2021/05/10 09:20:24;;;;;;;1.27;0.90;;;18.90;99.90;;;;;;5073788;28;20633;-65
2021/05/10 09:22:52;;;;;;;0.60;0.60;;;18.90;99.90;;;;;;5073811;28;20977;-65
2021/05/10 09:25:19;;;;;;;1.27;1.07;;;18.90;99.90;;;;;;5074014;28;20612;-65
2021/05/10 09:27:46;;;;;;;1.00;0.90;;;19.00;99.90;;;;;;5073864;28;21121;-65
2021/05/10 09:30:18;;;;;;;1.97;0.90;;;19.50;99.90;;;;;;5073578;28;20622;-65
2021/05/10 09:32:47;;;;;;;0.90;0.70;;;19.30;99.90;;;;;;5073216;28;20630;-65
2021/05/10 09:35:14;;;;;;;5.30;0.73;;;19.40;99.90;;;;;;5073438;28;20692;-65
2021/05/10 09:37:41;;;;;;;0.80;0.63;;;19.40;99.90;;;;;;5073266;28;20630;-65
2021/05/10 09:40:09;;;;;;;0.97;0.70;;;19.10;99.90;;;;;;5073491;28;20620;-65
2021/05/10 09:42:49;;;;;;;1.10;0.87;;;19.40;99.90;;;;;;5073511;28;20630;-65
2021/05/10 09:45:37;;;;;;;1.83;0.77;;;19.30;99.90;;;;;;5073442;28;20601;-65
2021/05/10 09:48:10;;;;;;;0.70;0.70;;;19.10;99.90;;;;;;5073533;28;20632;-65
2021/05/10 09:50:42;;;;;;;1.57;0.60;;;19.30;99.90;;;;;;5076612;28;21098;-65
2021/05/10 09:53:14;;;;;;;0.80;0.77;;;19.00;99.90;;;;;;5075930;28;21222;-65
2021/05/10 09:55:43;;;;;;;1.77;0.83;;;19.10;99.90;;;;;;5077333;28;20624;-65
2021/05/10 09:58:10;;;;;;;0.70;0.60;;;18.90;99.90;;;;;;5077796;28;20618;-65
2021/05/10 10:00:38;;;;;;;1.00;0.90;;;18.80;99.90;;;;;;5077256;28;20605;-65
2021/05/10 10:03:05;;;;;;;1.00;0.80;;;19.00;99.90;;;;;;5077176;28;20654;-65
2021/05/10 10:05:33;;;;;;;1.77;0.80;;;19.50;99.90;;;;;;5067222;28;21165;-65
2021/05/10 10:08:01;;;;;;;0.70;0.70;;;19.70;99.90;;;;;;5077351;28;20622;-66
2021/05/10 10:10:28;;;;;;;0.73;0.73;;;19.80;99.90;;;;;;5077483;28;20614;-65
2021/05/10 10:12:54;;;;;;;1.47;0.70;;;19.90;99.90;;;;;;5075930;28;20608;-66
2021/05/10 10:15:20;;;;;;;2.03;0.70;;;20.00;99.90;;;;;;5076833;28;20632;-66
2021/05/10 10:17:47;;;;;;;1.10;0.70;;;19.60;99.90;;;;;;5076867;28;20621;-64
2021/05/10 10:20:14;;;;;;;0.90;0.90;;;19.60;99.90;;;;;;5076643;28;20626;-64
2021/05/10 10:22:41;;;;;;;0.70;0.70;;;19.40;99.90;;;;;;5077686;28;20689;-65
2021/05/10 10:25:08;;;;;;;1.57;0.70;;;19.40;99.90;;;;;;5077437;28;20617;-65
2021/05/10 10:27:36;;;;;;;2.03;0.80;;;19.10;99.90;;;;;;5061905;28;20610;-65
2021/05/10 10:30:04;;;;;;;0.83;0.83;;;19.30;99.90;;;;;;5076457;28;20960;-65
2021/05/10 10:32:32;;;;;;;0.90;0.77;;;19.30;99.90;;;;;;5076206;28;21079;-65
2021/05/10 10:35:00;;;;;;;0.70;0.70;;;19.30;99.90;;;;;;5076301;28;20634;-65
2021/05/10 10:37:27;;;;;;;0.70;0.60;;;19.30;99.90;;;;;;5075940;28;20612;-65
2021/05/10 10:39:58;;;;;;;0.80;0.80;;;19.30;99.90;;;;;;5075835;28;20622;-65
2021/05/10 10:42:30;;;;;;;1.63;0.70;;;19.50;99.90;;;;;;5074450;28;20662;-65
2021/05/10 10:45:01;;;;;;;4.40;1.00;;;19.60;99.90;;;;;;5061939;28;20966;-65
2021/05/10 10:47:45;;;;;;;1.27;0.80;;;19.50;99.90;;;;;;5075957;28;20625;-65
2021/05/10 10:50:17;;;;;;;0.60;0.60;;;19.70;99.90;;;;;;5069955;28;20623;-65
2021/05/10 10:52:52;;;;;;;0.80;0.80;;;19.50;99.90;;;;;;5068188;28;20672;-65
2021/05/10 10:55:22;;;;;;;0.73;0.73;;;19.40;99.90;;;;;;5075735;28;20617;-65
2021/05/10 10:57:49;;;;;;;2.77;0.70;;;19.30;99.90;;;;;;5076066;28;20618;-65
2021/05/10 11:00:17;;;;;;;1.30;0.93;;;19.20;99.90;;;;;;5074965;28;20622;-65
2021/05/10 11:02:54;;;;;;;0.70;0.60;;;19.00;99.90;;;;;;5076028;28;20658;-65
2021/05/10 11:05:24;;;;;;;1.23;0.60;;;18.80;99.90;;;;;;5076111;28;20618;-65
2021/05/10 11:07:55;;;;;;;4.10;0.80;;;18.70;99.90;;;;;;5076103;28;20569;-65
2021/05/10 11:10:49;;;;;;;0.70;0.70;;;18.80;99.90;;;;;;5075201;28;20733;-66
2021/05/10 11:13:30;;;;;;;4.43;0.83;;;18.80;99.90;;;;;;5076561;28;20667;-65
2021/05/10 11:16:18;;;;;;;1.43;0.60;;;18.80;99.90;;;;;;5076592;28;20622;-66
2021/05/10 11:18:56;;;;;;;0.80;0.80;;;18.70;99.90;;;;;;5076281;28;20720;-66
2021/05/10 11:21:22;;;;;;;1.17;0.70;;;18.80;99.90;;;;;;5075034;28;20621;-64
2021/05/10 11:23:50;;;;;;;0.70;0.70;;;18.70;99.90;;;;;;5076280;28;20650;-64
2021/05/10 11:26:46;;;;;;;1.03;0.70;;;18.80;99.90;;;;;;5076130;28;20622;-64
2021/05/10 11:29:28;;;;;;;0.70;0.60;;;18.70;99.90;;;;;;5075853;28;20617;-64
2021/05/10 11:31:57;;;;;;;0.87;0.67;;;18.60;99.90;;;;;;5076112;28;20605;-64
2021/05/10 11:34:30;;;;;;;0.60;0.60;;;18.50;99.90;;;;;;5075775;28;20635;-64
2021/05/10 11:36:58;;;;;;;3.13;0.63;;;18.50;99.90;;;;;;5075877;28;20621;-64
2021/05/10 11:39:30;;;;;;;0.70;0.50;;;18.50;99.90;;;;;;5075687;28;20582;-64
2021/05/10 11:42:08;;;;;;;0.60;0.53;;;18.30;99.90;;;;;;5075169;28;21015;-64
2021/05/10 11:44:36;;;;;;;1.73;0.60;;;18.20;99.90;;;;;;5075437;28;20598;-64
2021/05/10 11:47:08;;;;;;;0.63;0.63;;;18.20;99.90;;;;;;5075532;28;20602;-64
2021/05/10 11:49:39;;;;;;;1.03;0.90;;;18.20;99.90;;;;;;5075710;28;20978;-65
2021/05/10 11:52:09;;;;;;;2.03;0.60;;;18.20;99.90;;;;;;5075715;28;20618;-64
2021/05/10 11:54:39;;;;;;;0.60;0.60;;;18.10;99.90;;;;;;5075606;28;20571;-65
2021/05/10 11:57:07;;;;;;;0.60;0.60;;;18.00;99.90;;;;;;5075429;28;20597;-65
2021/05/10 11:59:49;;;;;;;0.80;0.70;;;18.00;99.90;;;;;;5075162;28;20722;-64
2021/05/10 12:02:25;;;;;;;2.10;0.70;;;18.00;99.90;;;;;;5080634;28;20664;-65
2021/05/10 12:04:54;;;;;;;1.37;0.80;;;17.90;99.90;;;;;;5076127;28;20562;-65
2021/05/10 12:07:22;;;;;;;0.80;0.80;;;17.70;99.90;;;;;;5075220;28;21159;-64
2021/05/10 12:09:56;;;;;;;0.97;0.63;;;17.60;99.90;;;;;;5075067;28;20607;-64
2021/05/10 12:12:28;;;;;;;0.60;0.60;;;17.40;99.90;;;;;;5074751;28;20582;-64
2021/05/10 12:14:58;;;;;;;0.63;0.63;;;17.20;99.90;;;;;;5068045;28;20629;-64
2021/05/10 12:17:27;;;;;;;0.90;0.77;;;17.20;99.90;;;;;;5066855;28;20713;-65
2021/05/10 12:20:28;;;;;;;1.00;0.90;;;17.10;99.90;;;;;;5059954;28;20622;-64
2021/05/10 12:22:57;;;;;;;0.70;0.67;;;16.90;99.90;;;;;;5059150;28;20762;-64
2021/05/10 12:25:32;;;;;;;9.87;9.07;;;16.90;99.90;;;;;;5074093;28;20637;-65
2021/05/10 12:28:09;;;;;;;13.90;12.57;;;16.90;99.90;;;;;;5073862;28;20962;-65
2021/05/10 12:30:45;;;;;;;8.67;7.97;;;17.20;99.90;;;;;;5064713;28;20702;-65
2021/05/10 12:33:15;;;;;;;3.53;0.90;;;17.10;99.90;;;;;;5070968;28;20725;-65
2021/05/10 12:35:47;;;;;;;1.20;1.10;;;17.00;99.90;;;;;;5073757;28;20600;-64
2021/05/10 12:38:27;;;;;;;1.20;0.77;;;16.90;99.90;;;;;;5073744;28;20709;-66
2021/05/10 12:40:54;;;;;;;0.70;0.70;;;17.10;99.90;;;;;;5073783;28;20674;-65
2021/05/10 12:43:22;;;;;;;1.30;0.90;;;17.00;99.90;;;;;;5073941;28;20658;-64
2021/05/10 12:46:00;;;;;;;1.97;0.80;;;17.10;99.90;;;;;;5074320;28;20597;-65
2021/05/10 12:48:31;;;;;;;1.10;1.00;;;17.10;99.90;;;;;;5074399;28;20618;-65
2021/05/10 12:51:07;;;;;;;2.83;0.80;;;17.10;99.90;;;;;;5074249;28;20558;-63
2021/05/10 12:53:34;;;;;;;1.00;0.70;;;17.00;99.90;;;;;;5073898;28;20744;-66
2021/05/10 12:56:10;;;;;;;0.80;0.70;;;16.80;99.90;;;;;;5061877;28;21103;-64
2021/05/10 12:59:00;;;;;;;2.20;1.17;;;16.80;99.90;;;;;;5064964;28;20631;-64
2021/05/10 13:01:29;;;;;;;0.70;0.70;;;16.90;99.90;;;;;;5055602;28;20686;-64